createdAt,value
2022-08-18T00:01:06.611Z,23.08
2022-08-18T00:03:56.673Z,20.15
2022-08-18T00:06:21.155Z,20.88
2022-08-18T00:08:47.960Z,20.17
2022-08-18T00:11:16.157Z,22.23
2022-08-18T00:13:42.999Z,23.92
2022-08-18T00:16:09.918Z,18.45
2022-08-18T00:18:36.734Z,20.05
2022-08-18T00:21:03.550Z,21.40
2022-08-18T00:23:32.689Z,24.30
2022-08-18T00:25:59.555Z,21.33
2022-08-18T00:28:26.614Z,23.52
2022-08-18T00:30:54.063Z,22.45
2022-08-18T00:33:21.797Z,23.05
2022-08-18T00:35:49.383Z,21.45
2022-08-18T00:38:24.577Z,21.92
2022-08-18T00:40:55.630Z,18.88
2022-08-18T00:43:32.134Z,22.13
2022-08-18T00:45:59.400Z,22.00
2022-08-18T00:48:26.568Z,19.27
2022-08-18T00:51:00.269Z,21.13
2022-08-18T00:53:29.538Z,21.30
2022-08-18T00:56:00.583Z,22.20
2022-08-18T00:58:40.001Z,20.65
2022-08-18T01:01:09.605Z,21.48
2022-08-18T01:03:40.133Z,25.23
2022-08-18T01:06:09.899Z,20.35
2022-08-18T01:08:38.826Z,22.25
2022-08-18T01:11:07.875Z,23.85
2022-08-18T01:13:38.317Z,25.60
2022-08-18T01:16:25.595Z,25.63
2022-08-18T01:19:11.753Z,24.70
2022-08-18T01:21:52.348Z,28.58
2022-08-18T01:24:52.485Z,23.27
2022-08-18T01:27:19.416Z,29.10
2022-08-18T01:29:48.528Z,26.73
2022-08-18T01:32:22.512Z,23.30
2022-08-18T01:34:51.858Z,26.25
2022-08-18T01:37:21.866Z,24.77
2022-08-18T01:41:24.150Z,29.85
2022-08-18T01:42:37.452Z,28.45
2022-08-18T01:45:07.551Z,26.60
2022-08-18T01:47:47.846Z,26.90
2022-08-18T01:50:16.955Z,28.23
2022-08-18T01:52:44.123Z,25.02
2022-08-18T01:55:10.900Z,25.25
2022-08-18T01:57:45.232Z,24.27
2022-08-18T02:00:14.924Z,24.40
2022-08-18T02:02:42.364Z,26.15
2022-08-18T02:05:18.377Z,25.00
2022-08-18T02:07:45.657Z,28.55
2022-08-18T02:10:16.602Z,25.20
2022-08-18T02:12:43.915Z,26.35
2022-08-18T02:15:12.099Z,26.38
2022-08-18T02:17:41.641Z,30.98
2022-08-18T02:20:10.305Z,26.40
2022-08-18T02:22:37.450Z,27.48
2022-08-18T02:25:06.781Z,33.80
2022-08-18T02:27:34.287Z,26.85
2022-08-18T02:30:02.371Z,27.23
2022-08-18T02:32:29.442Z,25.40
2022-08-18T02:34:56.408Z,26.95
2022-08-18T02:37:23.363Z,25.55
2022-08-18T02:39:50.219Z,30.08
2022-08-18T02:42:17.302Z,26.23
2022-08-18T02:44:44.668Z,25.20
2022-08-18T02:47:11.697Z,29.38
2022-08-18T02:49:38.502Z,27.85
2022-08-18T02:52:06.192Z,27.40
2022-08-18T02:54:33.103Z,33.83
2022-08-18T02:56:59.815Z,30.52
2022-08-18T02:59:27.906Z,30.50
2022-08-18T03:01:58.714Z,28.90
2022-08-18T03:04:30.217Z,30.23
2022-08-18T03:07:03.947Z,31.40
2022-08-18T03:09:32.123Z,31.90
2022-08-18T03:11:59.211Z,32.80
2022-08-18T03:14:26.595Z,29.70
2022-08-18T03:16:54.880Z,31.13
2022-08-18T03:19:31.921Z,31.50
2022-08-18T03:22:02.710Z,32.22
2022-08-18T03:24:32.350Z,31.80
2022-08-18T03:27:01.719Z,30.50
2022-08-18T03:29:32.789Z,28.48
2022-08-18T03:32:02.233Z,24.83
2022-08-18T03:34:30.028Z,18.55
2022-08-18T03:36:56.885Z,17.40
2022-08-18T03:39:25.055Z,16.20
2022-08-18T03:41:59.472Z,16.02
2022-08-18T03:44:33.890Z,17.52
2022-08-18T03:47:03.944Z,13.40
2022-08-18T03:49:33.733Z,13.75
2022-08-18T03:52:01.672Z,10.23
2022-08-18T03:54:29.894Z,12.30
2022-08-18T03:56:56.853Z,11.55
2022-08-18T03:59:27.686Z,11.20
2022-08-18T04:01:55.350Z,13.43
2022-08-18T04:04:28.216Z,10.25
2022-08-18T04:06:58.820Z,8.95
2022-08-18T04:09:28.961Z,12.48
2022-08-18T04:11:57.118Z,11.68
2022-08-18T04:14:28.999Z,8.65
2022-08-18T04:16:57.115Z,12.20
2022-08-18T04:19:27.699Z,10.07
2022-08-18T04:21:57.701Z,9.93
2022-08-18T04:24:26.187Z,12.15
2022-08-18T04:26:53.564Z,10.25
2022-08-18T04:29:23.744Z,7.53
2022-08-18T04:31:51.642Z,12.65
2022-08-18T04:34:20.725Z,9.25
2022-08-18T04:36:48.271Z,12.07
2022-08-18T04:39:15.062Z,10.23
2022-08-18T04:41:44.124Z,9.32
2022-08-18T04:44:12.402Z,10.57
2022-08-18T04:46:41.896Z,6.95
2022-08-18T04:49:10.685Z,8.20
2022-08-18T04:52:36.483Z,7.55
2022-08-18T04:54:28.854Z,10.02
2022-08-18T04:56:55.885Z,8.05
2022-08-18T04:59:23.156Z,8.30
2022-08-18T05:01:49.908Z,7.82
2022-08-18T05:04:17.865Z,7.88
2022-08-18T05:06:46.280Z,9.75
2022-08-18T05:09:16.661Z,7.28
2022-08-18T05:11:50.925Z,9.88
2022-08-18T05:14:18.453Z,10.38
2022-08-18T05:16:48.545Z,6.78
2022-08-18T05:19:26.116Z,9.50
2022-08-18T05:21:59.926Z,7.75
2022-08-18T05:24:33.700Z,6.90
2022-08-18T05:27:04.969Z,9.95
2022-08-18T05:29:41.412Z,6.57
2022-08-18T05:32:30.310Z,11.75
2022-08-18T05:35:04.679Z,6.55
2022-08-18T05:37:58.373Z,8.68
2022-08-18T05:40:26.011Z,12.57
2022-08-18T05:42:57.729Z,7.80
2022-08-18T05:45:25.227Z,7.00
2022-08-18T05:48:00.180Z,6.50
2022-08-18T05:50:31.476Z,7.63
2022-08-18T05:53:13.691Z,8.93
2022-08-18T05:56:08.068Z,9.25
2022-08-18T05:58:43.474Z,8.60
2022-08-18T06:01:25.647Z,6.40
2022-08-18T06:04:01.086Z,7.88
2022-08-18T06:06:31.713Z,7.53
2022-08-18T06:09:13.087Z,6.50
2022-08-18T06:11:40.051Z,11.27
2022-08-18T06:14:07.085Z,8.00
2022-08-18T06:17:02.670Z,10.18
2022-08-18T06:19:44.926Z,8.65
2022-08-18T06:22:52.269Z,5.82
2022-08-18T06:25:55.424Z,4.95
2022-08-18T06:28:22.427Z,6.83
2022-08-18T06:31:18.466Z,9.95
2022-08-18T06:34:30.823Z,5.68
2022-08-18T06:37:20.035Z,7.65
2022-08-18T06:39:50.085Z,6.57
2022-08-18T06:42:25.992Z,6.63
2022-08-18T06:44:59.188Z,8.70
2022-08-18T06:47:29.352Z,8.30
2022-08-18T06:50:08.270Z,7.55
2022-08-18T06:52:50.979Z,8.18
2022-08-18T06:55:30.993Z,6.97
2022-08-18T06:58:01.263Z,6.38
2022-08-18T07:00:34.688Z,5.47
2022-08-18T07:03:20.808Z,6.88
2022-08-18T07:06:07.922Z,6.53
2022-08-18T07:08:41.394Z,6.68
2022-08-18T07:11:13.778Z,5.03
2022-08-18T07:13:44.460Z,7.32
2022-08-18T07:16:57.030Z,8.25
2022-08-18T07:19:30.024Z,15.13
2022-08-18T07:22:05.440Z,6.85
2022-08-18T07:24:38.742Z,4.60
2022-08-18T07:27:16.000Z,5.70
2022-08-18T07:30:09.133Z,7.82
2022-08-18T07:33:09.549Z,8.77
2022-08-18T07:35:59.490Z,6.90
2022-08-18T07:38:43.273Z,7.95
2022-08-18T07:41:52.600Z,7.28
2022-08-18T07:44:23.651Z,6.55
2022-08-18T07:47:04.397Z,4.77
2022-08-18T07:49:37.020Z,6.32
2022-08-18T07:52:46.877Z,7.70
2022-08-18T07:55:37.918Z,5.70
2022-08-18T07:58:32.737Z,4.78
2022-08-18T08:01:00.305Z,7.28
2022-08-18T08:04:01.456Z,4.72
2022-08-18T08:06:37.234Z,10.48
2022-08-18T08:09:29.924Z,8.70
2022-08-18T08:12:01.853Z,6.00
2022-08-18T08:14:49.843Z,14.40
2022-08-18T08:17:25.444Z,5.50
2022-08-18T08:20:10.648Z,11.57
2022-08-18T08:23:05.213Z,6.45
2022-08-18T08:25:54.796Z,7.03
2022-08-18T08:28:41.779Z,5.75
2022-08-18T08:31:37.955Z,8.68
2022-08-18T08:34:25.696Z,9.25
2022-08-18T08:37:02.707Z,7.40
2022-08-18T08:39:37.694Z,5.65
2022-08-18T08:42:32.073Z,7.60
2022-08-18T08:45:07.288Z,3.80
2022-08-18T08:47:45.377Z,5.40
2022-08-18T08:50:22.276Z,9.05
2022-08-18T08:53:06.233Z,5.40
2022-08-18T08:55:37.875Z,5.80
2022-08-18T08:58:24.710Z,7.07
2022-08-18T09:00:52.693Z,4.68
2022-08-18T09:04:01.929Z,5.68
2022-08-18T09:06:48.429Z,4.50
2022-08-18T09:09:21.277Z,6.05
2022-08-18T09:12:03.386Z,5.95
2022-08-18T09:15:00.447Z,7.00
2022-08-18T09:17:50.755Z,8.80
2022-08-18T09:20:43.527Z,4.15
2022-08-18T09:23:21.507Z,8.57
2022-08-18T09:25:56.792Z,3.65
2022-08-18T09:28:56.430Z,6.82
2022-08-18T09:31:24.843Z,5.35
2022-08-18T09:34:10.915Z,6.57
2022-08-18T09:36:58.903Z,6.78
2022-08-18T09:39:57.878Z,6.53
2022-08-18T09:42:30.594Z,6.75
2022-08-18T09:45:02.188Z,4.32
2022-08-18T09:47:30.467Z,10.50
2022-08-18T09:50:26.906Z,4.55
2022-08-18T09:52:58.993Z,10.15
2022-08-18T09:55:29.225Z,8.55
2022-08-18T09:58:26.228Z,5.38
2022-08-18T10:01:39.880Z,6.43
2022-08-18T10:04:21.861Z,5.20
2022-08-18T10:07:16.006Z,6.35
2022-08-18T10:13:38.763Z,6.68
2022-08-18T10:17:15.934Z,8.05
2022-08-18T10:19:56.226Z,7.15
2022-08-18T10:22:43.701Z,5.53
2022-08-18T10:25:22.961Z,8.00
2022-08-18T10:27:56.863Z,7.15
2022-08-18T10:30:34.469Z,5.68
2022-08-18T10:33:17.858Z,6.55
2022-08-18T10:36:03.076Z,4.90
2022-08-18T10:38:47.848Z,4.88
2022-08-18T10:41:24.518Z,7.88
2022-08-18T10:43:55.921Z,4.55
2022-08-18T10:46:34.992Z,4.45
2022-08-18T10:49:21.597Z,6.68
2022-08-18T10:52:09.355Z,6.50
2022-08-18T10:55:10.535Z,7.35
2022-08-18T10:58:15.376Z,7.27
2022-08-18T11:01:20.262Z,3.88
2022-08-18T11:03:56.137Z,8.07
2022-08-18T11:06:27.124Z,6.68
2022-08-18T11:09:00.368Z,5.93
2022-08-18T11:11:43.025Z,11.80
2022-08-18T11:14:23.761Z,6.57
2022-08-18T11:16:59.737Z,6.78
2022-08-18T11:19:27.232Z,9.68
2022-08-18T11:21:54.196Z,4.68
2022-08-18T11:24:27.590Z,5.22
2022-08-18T11:27:03.425Z,8.45
2022-08-18T11:29:34.645Z,6.15
2022-08-18T11:32:26.280Z,4.45
2022-08-18T11:35:10.814Z,6.43
2022-08-18T11:37:52.079Z,5.10
2022-08-18T11:43:16.951Z,8.25
2022-08-18T11:45:52.815Z,6.45
2022-08-18T11:48:36.023Z,5.47
2022-08-18T11:51:22.725Z,5.82
2022-08-18T11:54:03.153Z,4.88
2022-08-18T11:56:36.031Z,12.75
2022-08-18T11:59:08.664Z,6.68
2022-08-18T12:01:41.912Z,7.25
2022-08-18T12:04:14.514Z,5.40
2022-08-18T12:06:59.505Z,16.20
2022-08-18T12:12:30.934Z,8.50
2022-08-18T12:15:24.676Z,6.95
2022-08-18T12:17:53.660Z,4.95
2022-08-18T12:20:22.011Z,4.25
2022-08-18T12:22:50.271Z,5.78
2022-08-18T12:28:11.191Z,6.68
2022-08-18T12:30:38.105Z,8.68
2022-08-18T12:33:12.099Z,7.45
2022-08-18T12:38:26.716Z,5.10
2022-08-18T12:40:53.554Z,7.03
2022-08-18T12:43:20.513Z,7.20
2022-08-18T12:45:47.792Z,7.72
2022-08-18T12:48:15.111Z,5.70
2022-08-18T12:50:54.181Z,5.55
2022-08-18T12:53:29.183Z,7.00
2022-08-18T12:56:19.919Z,6.25
2022-08-18T13:01:13.890Z,7.30
2022-08-18T13:04:11.029Z,9.33
2022-08-18T13:06:37.413Z,6.72
2022-08-18T13:09:16.671Z,8.15
2022-08-18T13:11:55.082Z,5.72
2022-08-18T13:14:22.560Z,6.07
2022-08-18T13:16:53.858Z,7.72
2022-08-18T13:19:21.769Z,8.63
2022-08-18T13:21:49.539Z,8.02
2022-08-18T13:24:16.696Z,6.10
2022-08-18T13:26:50.221Z,8.20
2022-08-18T13:29:19.427Z,4.28
2022-08-18T13:31:55.936Z,8.13
2022-08-18T13:34:29.761Z,5.28
2022-08-18T13:36:58.056Z,6.20
2022-08-18T13:39:34.080Z,6.47
2022-08-18T13:42:26.413Z,9.88
2022-08-18T13:44:53.230Z,5.80
2022-08-18T13:47:22.340Z,6.15
2022-08-18T13:49:57.858Z,5.55
2022-08-18T13:52:34.182Z,6.65
2022-08-18T13:55:08.278Z,6.53
2022-08-18T13:57:36.868Z,7.10
2022-08-18T14:00:12.227Z,5.65
2022-08-18T14:02:53.619Z,7.75
2022-08-18T14:05:21.489Z,6.80
2022-08-18T14:08:05.238Z,7.70
2022-08-18T14:10:32.951Z,4.55
2022-08-18T14:13:20.875Z,7.40
2022-08-18T14:15:53.537Z,4.82
2022-08-18T14:18:21.533Z,6.15
2022-08-18T14:21:15.694Z,4.75
2022-08-18T14:24:01.231Z,7.18
2022-08-18T14:26:47.085Z,7.22
2022-08-18T14:29:45.716Z,4.03
2022-08-18T14:32:07.228Z,6.20
2022-08-18T14:34:34.657Z,7.03
2022-08-18T14:37:03.252Z,26.98
2022-08-18T14:39:30.369Z,11.70
2022-08-18T14:41:58.592Z,9.48
2022-08-18T14:44:30.261Z,14.93
2022-08-18T14:46:59.604Z,19.77
2022-08-18T14:49:29.404Z,8.50
2022-08-18T14:52:01.119Z,13.55
2022-08-18T14:54:30.089Z,11.10
2022-08-18T14:56:59.940Z,12.98
2022-08-18T14:59:28.533Z,11.70
2022-08-18T15:01:55.962Z,7.90
2022-08-18T15:04:23.050Z,8.93
2022-08-18T15:06:56.307Z,10.20
2022-08-18T15:09:27.420Z,11.68
2022-08-18T15:11:56.252Z,5.47
2022-08-18T15:14:33.135Z,7.03
2022-08-18T15:17:02.999Z,7.60
2022-08-18T15:20:00.496Z,5.95
2022-08-18T15:22:44.640Z,5.80
2022-08-18T15:25:30.047Z,8.07
2022-08-18T15:27:58.157Z,6.43
2022-08-18T15:30:25.649Z,4.90
2022-08-18T15:32:54.546Z,5.25
2022-08-18T15:35:21.469Z,6.38
2022-08-18T15:37:54.104Z,8.18
2022-08-18T15:40:35.540Z,9.43
2022-08-18T15:43:10.105Z,4.23
2022-08-18T15:45:43.323Z,6.05
2022-08-18T15:48:20.276Z,4.03
2022-08-18T15:50:50.992Z,6.28
2022-08-18T15:53:21.444Z,10.00
2022-08-18T15:55:49.984Z,8.00
2022-08-18T15:58:18.220Z,5.05
2022-08-18T16:00:50.639Z,6.53
2022-08-18T16:03:20.613Z,4.75
2022-08-18T16:05:55.205Z,4.63
2022-08-18T16:08:25.495Z,6.43
2022-08-18T16:10:53.624Z,8.25
2022-08-18T16:13:21.321Z,9.65
2022-08-18T16:15:49.957Z,6.07
2022-08-18T16:18:18.778Z,5.32
2022-08-18T16:20:45.683Z,4.53
2022-08-18T16:23:13.222Z,6.95
2022-08-18T16:25:41.780Z,7.63
2022-08-18T16:28:09.542Z,7.40
2022-08-18T16:30:36.598Z,8.07
2022-08-18T16:33:06.559Z,4.15
2022-08-18T16:35:34.894Z,4.18
2022-08-18T16:38:08.676Z,7.20
2022-08-18T16:40:36.893Z,6.18
2022-08-18T16:43:05.967Z,6.18
2022-08-18T16:45:35.936Z,6.57
2022-08-18T16:48:03.007Z,5.13
2022-08-18T16:50:30.172Z,6.15
2022-08-18T16:52:57.696Z,8.63
2022-08-18T16:55:24.697Z,6.50
2022-08-18T16:58:14.877Z,6.20
2022-08-18T17:01:01.889Z,5.10
2022-08-18T17:03:47.758Z,10.93
2022-08-18T17:06:18.039Z,5.82
2022-08-18T17:08:46.292Z,6.47
2022-08-18T17:11:17.756Z,7.60
2022-08-18T17:13:46.242Z,10.23
2022-08-18T17:16:13.739Z,8.85
2022-08-18T17:18:41.800Z,16.23
2022-08-18T17:21:11.799Z,8.65
2022-08-18T17:23:39.592Z,8.73
2022-08-18T17:26:17.503Z,6.22
2022-08-18T17:28:52.653Z,5.78
2022-08-18T17:31:22.680Z,7.50
2022-08-18T17:33:50.211Z,7.10
2022-08-18T17:36:30.523Z,9.77
2022-08-18T17:39:01.403Z,5.82
2022-08-18T17:41:28.618Z,6.90
2022-08-18T17:43:57.491Z,5.32
2022-08-18T17:46:32.299Z,8.63
2022-08-18T17:49:06.343Z,9.32
2022-08-18T17:51:44.414Z,7.88
2022-08-18T17:54:33.654Z,6.88
2022-08-18T17:57:13.512Z,5.95
2022-08-18T18:00:02.535Z,5.93
2022-08-18T18:02:41.016Z,8.00
2022-08-18T18:05:11.879Z,5.38
2022-08-18T18:07:52.922Z,9.48
2022-08-18T18:11:04.348Z,6.20
2022-08-18T18:13:34.984Z,8.63
2022-08-18T18:16:21.533Z,4.55
2022-08-18T18:18:59.988Z,6.13
2022-08-18T18:21:53.451Z,6.15
2022-08-18T18:24:24.200Z,6.97
2022-08-18T18:26:52.145Z,6.68
2022-08-18T18:29:35.660Z,6.70
2022-08-18T18:32:23.923Z,6.63
2022-08-18T18:35:07.430Z,5.53
2022-08-18T18:37:44.132Z,6.43
2022-08-18T18:40:29.388Z,6.88
2022-08-18T18:43:16.649Z,8.43
2022-08-18T18:46:05.089Z,8.48
2022-08-18T18:48:59.233Z,6.18
2022-08-18T18:51:36.032Z,6.28
2022-08-18T18:54:09.102Z,8.57
2022-08-18T18:56:45.672Z,9.30
2022-08-18T18:59:35.269Z,8.40
2022-08-18T19:02:21.162Z,10.10
2022-08-18T19:05:09.821Z,7.57
2022-08-18T19:07:55.314Z,7.53
2022-08-18T19:10:31.256Z,4.80
2022-08-18T19:13:05.688Z,7.07
2022-08-18T19:15:38.118Z,6.88
2022-08-18T19:18:28.686Z,7.10
2022-08-18T19:22:01.969Z,7.78
2022-08-18T19:23:56.867Z,6.80
2022-08-18T19:26:28.839Z,11.30
2022-08-18T19:29:13.750Z,8.32
2022-08-18T19:32:07.348Z,8.32
2022-08-18T19:34:42.463Z,5.40
2022-08-18T19:37:31.547Z,11.43
2022-08-18T19:40:39.385Z,6.63
2022-08-18T19:43:17.550Z,7.18
2022-08-18T19:45:47.181Z,9.82
2022-08-18T19:48:34.831Z,5.60
2022-08-18T19:51:10.271Z,8.43
2022-08-18T19:53:44.221Z,7.75
2022-08-18T19:56:48.945Z,5.38
2022-08-18T19:59:44.079Z,7.47
2022-08-18T20:02:17.032Z,6.43
2022-08-18T20:04:57.432Z,5.35
2022-08-18T20:07:49.876Z,5.25
2022-08-18T20:10:34.491Z,5.57
2022-08-18T20:13:11.416Z,7.70
2022-08-18T20:15:57.683Z,6.97
2022-08-18T20:18:34.471Z,6.22
2022-08-18T20:21:26.340Z,8.05
2022-08-18T20:23:56.615Z,7.60
2022-08-18T20:26:37.754Z,7.05
2022-08-18T20:29:13.154Z,6.43
2022-08-18T20:31:49.248Z,6.97
2022-08-18T20:34:25.527Z,6.50
2022-08-18T20:36:53.528Z,6.03
2022-08-18T20:39:38.981Z,11.13
2022-08-18T20:42:27.443Z,12.88
2022-08-18T20:44:58.926Z,7.18
2022-08-18T20:47:31.474Z,5.20
2022-08-18T20:50:13.429Z,5.90
2022-08-18T20:53:04.101Z,10.83
2022-08-18T20:56:12.952Z,7.35
2022-08-18T20:59:08.914Z,13.45
2022-08-18T21:01:36.967Z,9.00
2022-08-18T21:04:06.123Z,8.60
2022-08-18T21:06:38.599Z,9.70
2022-08-18T21:09:05.635Z,5.75
2022-08-18T21:11:43.755Z,7.15
2022-08-18T21:14:12.973Z,6.78
2022-08-18T21:16:45.199Z,8.55
2022-08-18T21:19:27.924Z,7.07
2022-08-18T21:22:00.516Z,6.68
2022-08-18T21:27:05.740Z,9.40
2022-08-18T21:29:46.987Z,8.43
2022-08-18T21:32:20.274Z,7.53
2022-08-18T21:34:47.869Z,8.82
2022-08-18T21:37:18.193Z,6.40
2022-08-18T21:39:48.099Z,9.57
2022-08-18T21:42:21.327Z,6.25
2022-08-18T21:44:49.319Z,9.40
2022-08-18T21:47:29.746Z,7.88
2022-08-18T21:50:23.223Z,11.68
2022-08-18T21:52:54.859Z,7.50
2022-08-18T21:55:45.170Z,6.57
2022-08-18T21:58:16.738Z,5.93
2022-08-18T22:00:47.961Z,6.50
2022-08-18T22:03:25.230Z,9.85
2022-08-18T22:06:01.617Z,5.97
2022-08-18T22:08:33.289Z,7.65
2022-08-18T22:11:51.968Z,6.57
2022-08-18T22:14:54.292Z,7.63
2022-08-18T22:17:56.613Z,5.63
2022-08-18T22:20:35.231Z,6.60
2022-08-18T22:23:32.789Z,6.28
2022-08-18T22:26:09.942Z,8.60
2022-08-18T22:28:58.874Z,9.13
2022-08-18T22:31:47.917Z,9.48
2022-08-18T22:34:27.081Z,7.80
2022-08-18T22:37:00.045Z,7.28
2022-08-18T22:39:34.164Z,10.65
2022-08-18T22:42:01.505Z,10.15
2022-08-18T22:44:28.780Z,7.43
2022-08-18T22:46:55.884Z,9.30
2022-08-18T22:49:24.243Z,8.50
2022-08-18T22:51:54.289Z,8.43
2022-08-18T22:54:23.192Z,7.03
2022-08-18T22:56:53.790Z,8.85
2022-08-18T22:59:25.598Z,9.93
2022-08-18T23:01:54.709Z,7.38
2022-08-18T23:04:23.647Z,6.95
2022-08-18T23:06:53.807Z,11.65
2022-08-18T23:09:27.078Z,7.63
2022-08-18T23:11:56.357Z,11.35
2022-08-18T23:14:24.194Z,11.20
2022-08-18T23:16:51.350Z,10.15
2022-08-18T23:19:20.392Z,9.18
2022-08-18T23:21:48.949Z,5.90
2022-08-18T23:24:16.761Z,5.95
2022-08-18T23:26:43.655Z,7.88
2022-08-18T23:29:11.875Z,10.50
2022-08-18T23:31:41.111Z,8.85
2022-08-18T23:34:08.684Z,7.22
2022-08-18T23:36:38.763Z,7.65
2022-08-18T23:39:07.170Z,9.90
2022-08-18T23:41:35.663Z,12.40
2022-08-18T23:44:02.708Z,7.82
2022-08-18T23:46:30.925Z,8.90
2022-08-18T23:48:59.078Z,13.98
2022-08-18T23:51:37.000Z,8.38
2022-08-18T23:54:07.797Z,11.25
2022-08-18T23:56:35.891Z,8.48
2022-08-18T23:59:05.197Z,11.20
